createdAt,value
2023-12-21T00:01:37.993Z,53.28
2023-12-21T00:04:06.328Z,53.36
2023-12-21T00:06:34.851Z,52.94
2023-12-21T00:09:02.903Z,52.92
2023-12-21T00:11:31.106Z,53.09
2023-12-21T00:14:00.573Z,53.63
2023-12-21T00:16:30.188Z,53.91
2023-12-21T00:18:58.843Z,53.95
2023-12-21T00:21:27.900Z,54.13
2023-12-21T00:23:55.851Z,54.21
2023-12-21T00:26:24.399Z,53.83
2023-12-21T00:28:52.367Z,53.63
2023-12-21T00:31:22.015Z,54.33
2023-12-21T00:33:49.981Z,54.65
2023-12-21T00:36:18.709Z,54.65
2023-12-21T00:38:46.715Z,55.28
2023-12-21T00:41:15.282Z,54.83
2023-12-21T00:43:43.282Z,54.84
2023-12-21T00:46:14.684Z,55.22
2023-12-21T00:48:42.946Z,55.45
2023-12-21T00:51:11.818Z,55.50
2023-12-21T00:53:39.844Z,55.12
2023-12-21T00:56:10.028Z,54.98
2023-12-21T00:58:38.169Z,55.57
2023-12-21T01:01:06.846Z,55.11
2023-12-21T01:03:35.039Z,55.66
2023-12-21T01:06:03.476Z,55.16
2023-12-21T01:08:31.497Z,54.85
2023-12-21T01:11:01.241Z,55.45
2023-12-21T01:13:29.293Z,55.02
2023-12-21T01:15:57.626Z,55.00
2023-12-21T01:18:25.766Z,55.37
2023-12-21T01:20:56.666Z,55.58
2023-12-21T01:23:24.583Z,55.98
2023-12-21T01:25:53.466Z,56.08
2023-12-21T01:28:21.497Z,56.17
2023-12-21T01:30:49.845Z,55.71
2023-12-21T01:33:18.020Z,55.59
2023-12-21T01:35:46.429Z,55.31
2023-12-21T01:38:14.808Z,55.53
2023-12-21T01:40:43.251Z,55.27
2023-12-21T01:43:11.488Z,56.02
2023-12-21T01:45:40.178Z,55.70
2023-12-21T01:48:09.948Z,56.58
2023-12-21T01:50:39.520Z,57.64
2023-12-21T01:53:10.906Z,56.57
2023-12-21T01:55:40.464Z,57.17
2023-12-21T01:58:13.815Z,56.67
2023-12-21T02:00:58.932Z,56.50
2023-12-21T02:03:28.100Z,57.27
2023-12-21T02:05:58.881Z,57.22
2023-12-21T02:08:27.777Z,57.07
2023-12-21T02:11:08.576Z,56.71
2023-12-21T02:13:37.603Z,56.07
2023-12-21T02:16:11.338Z,55.49
2023-12-21T02:18:40.175Z,56.25
2023-12-21T02:21:12.735Z,56.95
2023-12-21T02:23:44.231Z,56.51
2023-12-21T02:26:14.870Z,57.80
2023-12-21T02:28:44.447Z,57.08
2023-12-21T02:31:12.874Z,57.20
2023-12-21T02:33:40.990Z,57.71
2023-12-21T02:36:09.425Z,58.27
2023-12-21T02:38:37.441Z,58.14
2023-12-21T02:41:05.365Z,56.87
2023-12-21T02:43:33.919Z,56.20
2023-12-21T02:46:04.618Z,56.11
2023-12-21T02:48:33.911Z,57.21
2023-12-21T02:51:02.409Z,56.90
2023-12-21T02:53:30.614Z,58.29
2023-12-21T02:55:58.860Z,56.79
2023-12-21T02:58:27.337Z,57.93
2023-12-21T03:00:55.513Z,57.73
2023-12-21T03:03:23.949Z,58.23
2023-12-21T03:05:51.930Z,57.73
2023-12-21T03:08:20.302Z,57.83
2023-12-21T03:10:48.306Z,57.94
2023-12-21T03:13:16.963Z,57.44
2023-12-21T03:15:44.872Z,56.95
2023-12-21T03:18:13.789Z,56.17
2023-12-21T03:20:41.659Z,56.91
2023-12-21T03:23:12.680Z,56.46
2023-12-21T03:25:40.865Z,57.68
2023-12-21T03:28:11.452Z,57.24
2023-12-21T03:30:40.163Z,56.80
2023-12-21T03:33:08.283Z,56.95
2023-12-21T03:35:37.183Z,56.22
2023-12-21T03:38:05.344Z,56.19
2023-12-21T03:40:34.008Z,56.01
2023-12-21T03:43:02.366Z,56.67
2023-12-21T03:45:30.958Z,57.18
2023-12-21T03:47:59.329Z,57.13
2023-12-21T03:50:29.241Z,57.58
2023-12-21T03:52:57.400Z,56.65
2023-12-21T03:55:25.783Z,56.24
2023-12-21T03:57:55.072Z,56.34
2023-12-21T04:00:24.604Z,56.32
2023-12-21T04:02:52.832Z,57.43
2023-12-21T04:05:21.262Z,57.17
2023-12-21T04:07:49.600Z,56.61
2023-12-21T04:10:18.337Z,56.90
2023-12-21T04:12:47.125Z,56.44
2023-12-21T04:15:17.873Z,56.97
2023-12-21T04:17:46.042Z,57.01
2023-12-21T04:20:14.707Z,57.47
2023-12-21T04:22:43.045Z,57.83
2023-12-21T04:25:11.528Z,57.46
2023-12-21T04:27:39.667Z,56.30
2023-12-21T04:30:11.555Z,56.37
2023-12-21T04:32:39.744Z,57.27
2023-12-21T04:35:10.069Z,57.18
2023-12-21T04:37:38.213Z,57.13
2023-12-21T04:40:07.501Z,56.33
2023-12-21T04:42:37.708Z,57.15
2023-12-21T04:45:06.665Z,56.54
2023-12-21T04:47:34.836Z,57.70
2023-12-21T04:50:03.383Z,57.64
2023-12-21T04:52:32.191Z,57.58
2023-12-21T04:55:01.051Z,56.89
2023-12-21T04:57:32.969Z,57.35
2023-12-21T05:00:02.420Z,56.76
2023-12-21T05:02:35.675Z,57.21
2023-12-21T05:05:04.287Z,56.93
2023-12-21T05:07:32.892Z,57.13
2023-12-21T05:10:02.505Z,57.27
2023-12-21T05:12:31.630Z,57.13
2023-12-21T05:15:00.227Z,56.46
2023-12-21T05:17:28.960Z,56.54
2023-12-21T05:20:02.213Z,57.16
2023-12-21T05:22:32.639Z,56.73
2023-12-21T05:25:03.179Z,57.03
2023-12-21T05:27:32.652Z,56.94
2023-12-21T05:30:01.027Z,56.06
2023-12-21T05:32:32.517Z,56.45
2023-12-21T05:35:02.496Z,56.47
2023-12-21T05:37:31.956Z,56.90
2023-12-21T05:40:00.559Z,56.19
2023-12-21T05:42:28.618Z,56.37
2023-12-21T05:44:57.060Z,55.69
2023-12-21T05:47:25.169Z,55.58
2023-12-21T05:49:53.938Z,56.27
2023-12-21T05:52:21.880Z,54.77
2023-12-21T05:54:50.359Z,54.91
2023-12-21T05:57:18.467Z,55.00
2023-12-21T05:59:47.017Z,55.81
2023-12-21T06:02:15.142Z,55.45
2023-12-21T06:04:43.610Z,55.51
2023-12-21T06:07:12.038Z,55.68
2023-12-21T06:09:40.481Z,56.92
2023-12-21T06:12:08.804Z,56.04
2023-12-21T06:14:40.250Z,55.34
2023-12-21T06:17:08.757Z,55.50
2023-12-21T06:19:37.254Z,56.01
2023-12-21T06:22:07.124Z,56.28
2023-12-21T06:24:35.565Z,55.60
2023-12-21T06:27:04.020Z,55.35
2023-12-21T06:29:34.810Z,55.29
2023-12-21T06:32:03.955Z,55.10
2023-12-21T06:34:32.504Z,53.39
2023-12-21T06:37:02.521Z,53.31
2023-12-21T06:39:32.624Z,53.53
2023-12-21T06:42:00.555Z,52.92
2023-12-21T06:44:29.669Z,52.95
2023-12-21T06:46:58.206Z,53.26
2023-12-21T06:49:26.524Z,53.33
2023-12-21T06:51:54.612Z,53.41
2023-12-21T06:54:22.968Z,53.80
2023-12-21T06:56:50.997Z,53.45
2023-12-21T06:59:19.273Z,53.42
2023-12-21T07:01:47.471Z,54.89
2023-12-21T07:04:16.007Z,53.81
2023-12-21T07:06:44.185Z,53.23
2023-12-21T07:09:12.457Z,53.02
2023-12-21T07:11:40.442Z,52.58
2023-12-21T07:14:08.765Z,52.81
2023-12-21T07:16:37.442Z,53.03
2023-12-21T07:19:07.716Z,53.08
2023-12-21T07:21:36.700Z,52.65
2023-12-21T07:24:05.811Z,52.97
2023-12-21T07:26:35.128Z,52.55
2023-12-21T07:29:05.057Z,52.71
2023-12-21T07:31:33.046Z,53.03
2023-12-21T07:34:01.502Z,52.78
2023-12-21T07:36:29.418Z,52.34
2023-12-21T07:38:58.306Z,52.46
2023-12-21T07:41:26.641Z,53.10
2023-12-21T07:43:55.793Z,52.76
2023-12-21T07:46:26.115Z,52.59
2023-12-21T07:48:54.628Z,52.96
2023-12-21T07:51:22.647Z,52.81
2023-12-21T07:53:51.001Z,53.42
2023-12-21T07:56:19.262Z,53.37
2023-12-21T07:58:48.122Z,53.45
2023-12-21T08:01:16.551Z,52.94
2023-12-21T08:03:45.704Z,53.23
2023-12-21T08:06:23.762Z,52.39
2023-12-21T08:08:57.880Z,52.95
2023-12-21T08:11:29.386Z,52.63
2023-12-21T08:13:59.397Z,52.47
2023-12-21T08:16:27.490Z,53.38
2023-12-21T08:18:57.347Z,52.84
2023-12-21T08:21:25.872Z,52.94
2023-12-21T08:23:55.542Z,52.82
2023-12-21T08:26:23.647Z,51.77
2023-12-21T08:28:52.175Z,51.39
2023-12-21T08:31:29.725Z,51.61
2023-12-21T08:33:58.298Z,51.80
2023-12-21T08:36:26.536Z,51.46
2023-12-21T08:38:55.469Z,51.62
2023-12-21T08:41:26.356Z,50.75
2023-12-21T08:43:56.938Z,50.93
2023-12-21T08:46:26.233Z,51.48
2023-12-21T08:48:54.695Z,50.46
2023-12-21T08:51:23.893Z,50.02
2023-12-21T08:53:52.169Z,51.75
2023-12-21T08:56:20.488Z,49.01
2023-12-21T08:58:49.087Z,49.55
2023-12-21T09:01:17.517Z,47.67
2023-12-21T09:03:45.932Z,47.92
2023-12-21T09:06:14.175Z,47.35
2023-12-21T09:08:42.467Z,47.37
2023-12-21T09:11:10.450Z,46.82
2023-12-21T09:13:38.792Z,47.87
2023-12-21T09:16:07.094Z,48.06
2023-12-21T09:18:35.523Z,47.04
2023-12-21T09:21:05.153Z,46.31
2023-12-21T09:23:35.907Z,46.11
2023-12-21T09:26:04.967Z,46.01
2023-12-21T09:28:33.446Z,46.75
2023-12-21T09:31:01.809Z,46.00
2023-12-21T09:33:33.975Z,46.23
2023-12-21T09:36:02.696Z,46.65
2023-12-21T09:38:32.612Z,46.88
2023-12-21T09:41:01.042Z,46.23
2023-12-21T09:43:31.321Z,46.20
2023-12-21T09:46:00.299Z,45.72
2023-12-21T09:48:30.258Z,45.88
2023-12-21T09:51:04.096Z,45.45
2023-12-21T09:53:35.321Z,46.57
2023-12-21T09:56:05.733Z,46.39
2023-12-21T09:58:34.633Z,46.43
2023-12-21T10:01:02.923Z,46.02
2023-12-21T10:03:33.635Z,46.24
2023-12-21T10:06:05.086Z,46.54
2023-12-21T10:08:36.791Z,46.64
2023-12-21T10:11:07.942Z,45.85
2023-12-21T10:13:37.110Z,45.29
2023-12-21T10:16:05.639Z,45.68
2023-12-21T10:18:34.347Z,45.45
2023-12-21T10:21:04.093Z,44.81
2023-12-21T10:23:32.719Z,44.37
2023-12-21T10:26:04.107Z,43.76
2023-12-21T10:28:32.691Z,43.57
2023-12-21T10:31:05.651Z,43.76
2023-12-21T10:33:38.637Z,43.57
2023-12-21T10:36:06.966Z,44.05
2023-12-21T10:38:35.299Z,44.06
2023-12-21T10:41:08.211Z,43.85
2023-12-21T10:43:37.169Z,43.88
2023-12-21T10:46:06.159Z,44.71
2023-12-21T10:48:37.504Z,43.93
2023-12-21T10:51:06.204Z,43.95
2023-12-21T10:53:37.582Z,44.55
2023-12-21T10:56:07.353Z,44.62
2023-12-21T10:58:36.399Z,44.16
2023-12-21T11:01:07.713Z,43.40
2023-12-21T11:03:36.941Z,43.56
2023-12-21T11:06:05.400Z,43.07
2023-12-21T11:08:34.981Z,43.23
2023-12-21T11:11:04.924Z,42.72
2023-12-21T11:13:33.474Z,42.74
2023-12-21T11:16:02.692Z,42.96
2023-12-21T11:18:31.687Z,42.86
2023-12-21T11:21:02.229Z,42.74
2023-12-21T11:23:31.319Z,42.85
2023-12-21T11:26:00.638Z,42.43
2023-12-21T11:28:34.451Z,42.77
2023-12-21T11:31:16.164Z,42.85
2023-12-21T11:33:45.042Z,42.83
2023-12-21T11:36:24.606Z,42.58
2023-12-21T11:38:54.053Z,43.09
2023-12-21T11:41:26.065Z,43.22
2023-12-21T11:44:02.682Z,43.75
2023-12-21T11:46:34.519Z,43.39
2023-12-21T11:49:04.275Z,43.32
2023-12-21T11:51:33.027Z,43.57
2023-12-21T11:54:07.865Z,43.50
2023-12-21T11:56:37.121Z,42.81
2023-12-21T11:59:08.132Z,43.67
2023-12-21T12:01:36.494Z,43.63
2023-12-21T12:04:08.722Z,44.02
2023-12-21T12:06:39.556Z,44.44
2023-12-21T12:09:08.037Z,44.07
2023-12-21T12:11:36.451Z,43.43
2023-12-21T12:14:04.868Z,44.13
2023-12-21T12:16:33.866Z,43.82
2023-12-21T12:19:02.474Z,43.69
2023-12-21T12:21:32.014Z,43.00
2023-12-21T12:24:01.268Z,42.92
2023-12-21T12:26:29.686Z,43.08
2023-12-21T12:28:58.038Z,43.29
2023-12-21T12:31:27.727Z,43.21
2023-12-21T12:33:57.463Z,43.20
2023-12-21T12:36:25.461Z,42.39
2023-12-21T12:38:56.393Z,43.01
2023-12-21T12:41:25.979Z,42.58
2023-12-21T12:43:54.666Z,42.73
2023-12-21T12:46:23.159Z,42.99
2023-12-21T12:48:51.949Z,43.05
2023-12-21T12:51:20.944Z,42.48
2023-12-21T12:53:49.244Z,42.75
2023-12-21T12:56:17.335Z,42.55
2023-12-21T12:58:55.517Z,43.11
2023-12-21T13:01:29.067Z,42.81
2023-12-21T13:04:00.484Z,43.27
2023-12-21T13:06:30.426Z,43.19
2023-12-21T13:08:59.347Z,43.32
2023-12-21T13:11:31.607Z,43.37
2023-12-21T13:14:00.736Z,43.56
2023-12-21T13:16:28.770Z,43.38
2023-12-21T13:18:58.302Z,43.60
2023-12-21T13:21:26.653Z,43.77
2023-12-21T13:23:57.052Z,43.73
2023-12-21T13:26:25.211Z,44.13
2023-12-21T13:28:56.201Z,44.32
2023-12-21T13:31:26.024Z,44.23
2023-12-21T13:33:55.437Z,44.22
2023-12-21T13:36:24.218Z,44.22
2023-12-21T13:38:53.708Z,45.18
2023-12-21T13:41:21.573Z,44.83
2023-12-21T13:43:53.582Z,44.55
2023-12-21T13:46:23.501Z,44.54
2023-12-21T13:48:52.266Z,44.88
2023-12-21T13:51:20.320Z,45.66
2023-12-21T13:53:48.729Z,45.63
2023-12-21T13:56:16.734Z,45.73
2023-12-21T13:58:45.415Z,45.91
2023-12-21T14:01:13.576Z,45.42
2023-12-21T14:03:41.969Z,45.54
2023-12-21T14:06:10.317Z,45.36
2023-12-21T14:08:38.602Z,45.68
2023-12-21T14:11:06.993Z,45.37
2023-12-21T14:13:35.578Z,45.58
2023-12-21T14:16:04.198Z,45.53
2023-12-21T14:18:36.310Z,45.02
2023-12-21T14:21:04.511Z,45.46
2023-12-21T14:23:32.860Z,45.48
2023-12-21T14:26:01.463Z,45.65
2023-12-21T14:28:39.141Z,45.90
2023-12-21T14:31:11.816Z,45.67
2023-12-21T14:33:40.324Z,46.13
2023-12-21T14:36:08.771Z,46.21
2023-12-21T14:38:37.081Z,45.43
2023-12-21T14:41:05.298Z,45.24
2023-12-21T14:43:33.621Z,46.33
2023-12-21T14:46:02.238Z,46.76
2023-12-21T14:48:30.863Z,47.11
2023-12-21T14:50:59.456Z,46.92
2023-12-21T14:53:27.846Z,47.03
2023-12-21T14:55:56.240Z,47.18
2023-12-21T14:58:24.575Z,47.44
2023-12-21T15:00:52.821Z,47.53
2023-12-21T15:03:21.189Z,48.11
2023-12-21T15:05:50.137Z,47.82
2023-12-21T15:08:18.770Z,48.09
2023-12-21T15:10:47.220Z,48.82
2023-12-21T15:13:17.825Z,48.57
2023-12-21T15:15:49.584Z,47.84
2023-12-21T15:18:18.244Z,48.67
2023-12-21T15:20:46.222Z,48.12
2023-12-21T15:23:15.189Z,49.32
2023-12-21T15:25:43.606Z,49.84
2023-12-21T15:28:12.178Z,48.15
2023-12-21T15:30:40.549Z,48.62
2023-12-21T15:33:10.498Z,48.67
2023-12-21T15:35:41.818Z,48.48
2023-12-21T15:38:10.780Z,47.98
2023-12-21T15:40:41.274Z,47.04
2023-12-21T15:43:09.732Z,46.77
2023-12-21T15:45:38.472Z,47.27
2023-12-21T15:48:08.373Z,47.12
2023-12-21T15:50:36.529Z,47.75
2023-12-21T15:53:06.438Z,48.02
2023-12-21T15:55:36.224Z,47.97
2023-12-21T15:58:04.749Z,47.87
2023-12-21T16:00:32.712Z,48.07
2023-12-21T16:03:01.247Z,48.25
2023-12-21T16:05:29.661Z,48.14
2023-12-21T16:07:57.928Z,48.73
2023-12-21T16:10:26.098Z,48.01
2023-12-21T16:12:54.860Z,47.48
2023-12-21T16:15:28.961Z,47.66
2023-12-21T16:17:58.313Z,48.82
2023-12-21T16:20:26.293Z,49.45
2023-12-21T16:22:56.815Z,49.50
2023-12-21T16:25:24.841Z,49.56
2023-12-21T16:27:53.160Z,50.01
2023-12-21T16:30:21.806Z,50.08
2023-12-21T16:32:51.558Z,50.07
2023-12-21T16:35:19.863Z,49.03
2023-12-21T16:51:01.057Z,48.70
2023-12-21T17:10:19.221Z,49.58
2023-12-21T17:17:21.545Z,48.60
2023-12-21T17:20:16.026Z,49.42
2023-12-21T17:22:48.703Z,48.79
2023-12-21T17:25:19.390Z,48.64
2023-12-21T17:27:49.949Z,49.27
2023-12-21T17:30:26.351Z,50.13
2023-12-21T17:33:02.550Z,49.90
2023-12-21T17:35:33.763Z,49.00
2023-12-21T17:38:13.561Z,49.38
2023-12-21T17:40:43.721Z,48.81
2023-12-21T17:43:15.610Z,49.54
2023-12-21T17:45:48.119Z,48.30
2023-12-21T17:48:17.013Z,48.17
2023-12-21T17:50:45.422Z,48.27
2023-12-21T17:53:14.167Z,48.29
2023-12-21T17:55:43.415Z,48.47
2023-12-21T17:58:12.363Z,48.67
2023-12-21T18:00:40.542Z,49.09
2023-12-21T18:03:09.408Z,49.20
2023-12-21T18:05:37.347Z,49.48
2023-12-21T18:08:06.229Z,49.34
2023-12-21T18:10:34.425Z,48.46
2023-12-21T18:13:02.930Z,49.37
2023-12-21T18:15:31.005Z,48.88
2023-12-21T18:17:59.518Z,48.56
2023-12-21T18:20:27.690Z,48.59
2023-12-21T18:22:56.048Z,48.30
2023-12-21T18:25:24.530Z,48.50
2023-12-21T18:27:55.661Z,48.07
2023-12-21T18:30:24.285Z,49.61
2023-12-21T18:32:52.752Z,48.46
2023-12-21T18:35:21.331Z,47.76
2023-12-21T18:37:49.923Z,48.24
2023-12-21T18:40:19.314Z,48.27
2023-12-21T18:42:49.504Z,48.28
2023-12-21T18:45:17.497Z,48.41
2023-12-21T18:47:46.251Z,48.39
2023-12-21T18:50:14.566Z,48.83
2023-12-21T18:52:43.045Z,48.52
2023-12-21T18:55:11.291Z,48.27
2023-12-21T18:57:40.638Z,48.74
2023-12-21T19:00:10.563Z,48.61
2023-12-21T19:02:38.902Z,48.43
2023-12-21T19:05:08.354Z,48.02
2023-12-21T19:07:37.164Z,48.04
2023-12-21T19:10:07.826Z,48.20
2023-12-21T19:12:38.089Z,49.93
2023-12-21T19:15:07.104Z,48.97
2023-12-21T19:17:37.142Z,49.04
2023-12-21T19:20:05.757Z,49.72
2023-12-21T19:22:34.343Z,50.07
2023-12-21T19:25:02.456Z,49.63
2023-12-21T19:27:32.541Z,49.98
2023-12-21T19:30:00.663Z,50.33
2023-12-21T19:32:29.928Z,50.39
2023-12-21T19:34:58.157Z,50.93
2023-12-21T19:37:27.074Z,50.78
2023-12-21T19:39:55.098Z,50.70
2023-12-21T19:42:23.535Z,50.33
2023-12-21T19:44:51.594Z,50.54
2023-12-21T19:47:19.994Z,50.73
2023-12-21T19:49:48.000Z,51.51
2023-12-21T19:52:16.611Z,50.56
2023-12-21T19:54:44.625Z,51.05
2023-12-21T19:57:15.162Z,50.28
2023-12-21T19:59:43.480Z,49.67
2023-12-21T20:02:12.839Z,50.03
2023-12-21T20:04:41.628Z,50.98
2023-12-21T20:07:10.101Z,50.08
2023-12-21T20:09:40.049Z,50.34
2023-12-21T20:12:08.646Z,50.23
2023-12-21T20:14:36.616Z,50.92
2023-12-21T20:17:05.215Z,51.31
2023-12-21T20:19:33.589Z,51.39
2023-12-21T20:22:01.954Z,50.50
2023-12-21T20:24:30.821Z,51.30
2023-12-21T20:26:59.391Z,51.23
2023-12-21T20:29:27.240Z,51.05
2023-12-21T20:31:55.598Z,50.07
2023-12-21T20:34:24.600Z,49.57
2023-12-21T20:36:53.481Z,50.15
2023-12-21T20:39:21.509Z,50.17
2023-12-21T20:41:51.280Z,50.62
2023-12-21T20:44:19.943Z,51.70
2023-12-21T20:46:49.699Z,51.15
2023-12-21T20:49:18.009Z,50.75
2023-12-21T20:51:46.503Z,50.86
2023-12-21T20:54:14.767Z,49.99
2023-12-21T20:56:43.145Z,50.55
2023-12-21T20:59:11.307Z,51.11
2023-12-21T21:01:41.483Z,49.89
2023-12-21T21:04:09.612Z,49.95
2023-12-21T21:06:37.854Z,49.19
2023-12-21T21:09:10.150Z,50.53
2023-12-21T21:11:38.521Z,50.28
2023-12-21T21:14:06.575Z,50.13
2023-12-21T21:16:35.138Z,48.95
2023-12-21T21:19:04.409Z,48.70
2023-12-21T21:21:32.986Z,49.13
2023-12-21T21:24:03.576Z,49.47
2023-12-21T21:26:32.670Z,49.18
2023-12-21T21:29:01.637Z,49.93
2023-12-21T21:31:30.017Z,48.90
2023-12-21T21:33:58.175Z,49.88
2023-12-21T21:36:26.562Z,49.36
2023-12-21T21:38:54.582Z,49.58
2023-12-21T21:41:23.091Z,50.38
2023-12-21T21:43:52.277Z,50.82
2023-12-21T21:46:22.895Z,49.45
2023-12-21T21:48:51.590Z,50.32
2023-12-21T21:51:20.191Z,50.79
2023-12-21T21:53:48.250Z,50.46
2023-12-21T21:56:20.183Z,49.67
2023-12-21T21:58:48.562Z,49.71
2023-12-21T22:01:16.956Z,50.24
2023-12-21T22:03:45.715Z,50.10
2023-12-21T22:06:14.105Z,50.33
2023-12-21T22:08:42.480Z,49.60
2023-12-21T22:11:11.618Z,49.28
2023-12-21T22:13:40.349Z,49.50
2023-12-21T22:16:08.675Z,48.86
2023-12-21T22:18:36.847Z,48.84
2023-12-21T22:21:05.431Z,48.98
2023-12-21T22:23:33.630Z,47.99
2023-12-21T22:26:06.344Z,48.96
2023-12-21T22:28:35.762Z,48.88
2023-12-21T22:31:05.088Z,47.65
2023-12-21T22:33:33.334Z,48.75
2023-12-21T22:36:01.713Z,48.90
2023-12-21T22:38:30.277Z,48.54
2023-12-21T22:40:58.730Z,49.21
2023-12-21T22:43:34.998Z,48.41
2023-12-21T22:46:11.609Z,48.05
2023-12-21T22:48:40.450Z,48.52
2023-12-21T22:51:09.006Z,48.35
2023-12-21T22:53:38.216Z,48.85
2023-12-21T22:56:06.829Z,50.25
2023-12-21T22:58:36.176Z,49.22
2023-12-21T23:01:04.687Z,51.06
2023-12-21T23:03:32.931Z,50.27
2023-12-21T23:06:01.353Z,50.13
2023-12-21T23:08:29.522Z,50.51
2023-12-21T23:10:57.924Z,49.83
2023-12-21T23:13:29.702Z,49.26
2023-12-21T23:15:58.861Z,49.14
2023-12-21T23:18:27.162Z,49.19
2023-12-21T23:20:57.010Z,49.64
2023-12-21T23:23:25.087Z,49.91
2023-12-21T23:25:53.707Z,48.99
2023-12-21T23:28:24.029Z,48.75
2023-12-21T23:30:53.563Z,49.58
2023-12-21T23:33:23.111Z,48.07
2023-12-21T23:35:52.250Z,48.38
2023-12-21T23:38:20.789Z,48.13
2023-12-21T23:40:49.526Z,47.99
2023-12-21T23:43:17.494Z,48.40
2023-12-21T23:45:46.037Z,48.47
2023-12-21T23:48:14.135Z,47.44
2023-12-21T23:50:43.006Z,47.23
2023-12-21T23:53:11.812Z,46.81
2023-12-21T23:55:40.690Z,47.21
2023-12-21T23:58:08.844Z,47.75
